sensor_id;sensor_type;location;lat;lon;timestamp;P1;durP1;ratioP1;P2;durP2;ratioP2
8104;SDS011;4095;48.942;9.104;2023-02-11T00:01:07;43.40;;;28.97;;
8104;SDS011;4095;48.942;9.104;2023-02-11T00:03:34;49.37;;;30.30;;
8104;SDS011;4095;48.942;9.104;2023-02-11T00:06:01;48.33;;;30.07;;
8104;SDS011;4095;48.942;9.104;2023-02-11T00:08:29;47.03;;;31.23;;
8104;SDS011;4095;48.942;9.104;2023-02-11T00:10:55;50.33;;;29.57;;
8104;SDS011;4095;48.942;9.104;2023-02-11T00:13:21;50.63;;;29.90;;
8104;SDS011;4095;48.942;9.104;2023-02-11T00:15:48;44.43;;;28.70;;
8104;SDS011;4095;48.942;9.104;2023-02-11T00:18:14;44.30;;;28.73;;
8104;SDS011;4095;48.942;9.104;2023-02-11T00:20:40;44.60;;;28.73;;
8104;SDS011;4095;48.942;9.104;2023-02-11T00:23:06;46.63;;;28.73;;
8104;SDS011;4095;48.942;9.104;2023-02-11T00:25:32;47.33;;;29.63;;
8104;SDS011;4095;48.942;9.104;2023-02-11T00:27:58;41.63;;;28.17;;
8104;SDS011;4095;48.942;9.104;2023-02-11T00:30:23;41.17;;;27.50;;
8104;SDS011;4095;48.942;9.104;2023-02-11T00:32:49;45.87;;;27.70;;
8104;SDS011;4095;48.942;9.104;2023-02-11T00:35:15;46.00;;;28.93;;
8104;SDS011;4095;48.942;9.104;2023-02-11T00:37:40;39.20;;;26.13;;
8104;SDS011;4095;48.942;9.104;2023-02-11T00:40:06;44.23;;;28.27;;
8104;SDS011;4095;48.942;9.104;2023-02-11T00:42:32;45.93;;;28.67;;
8104;SDS011;4095;48.942;9.104;2023-02-11T00:44:59;41.90;;;26.73;;
8104;SDS011;4095;48.942;9.104;2023-02-11T00:47:25;41.33;;;27.40;;
8104;SDS011;4095;48.942;9.104;2023-02-11T00:49:51;42.50;;;26.87;;
8104;SDS011;4095;48.942;9.104;2023-02-11T00:52:17;42.33;;;26.63;;
8104;SDS011;4095;48.942;9.104;2023-02-11T00:54:42;42.70;;;27.13;;
8104;SDS011;4095;48.942;9.104;2023-02-11T00:57:08;42.90;;;27.70;;
8104;SDS011;4095;48.942;9.104;2023-02-11T00:59:33;37.63;;;24.97;;
8104;SDS011;4095;48.942;9.104;2023-02-11T01:01:59;43.87;;;26.87;;
8104;SDS011;4095;48.942;9.104;2023-02-11T01:04:25;43.00;;;27.10;;
8104;SDS011;4095;48.942;9.104;2023-02-11T01:06:51;44.40;;;27.87;;
8104;SDS011;4095;48.942;9.104;2023-02-11T01:09:16;39.30;;;26.13;;
8104;SDS011;4095;48.942;9.104;2023-02-11T01:11:42;45.30;;;29.53;;
8104;SDS011;4095;48.942;9.104;2023-02-11T01:14:08;43.13;;;27.63;;
8104;SDS011;4095;48.942;9.104;2023-02-11T01:16:34;41.67;;;26.93;;
8104;SDS011;4095;48.942;9.104;2023-02-11T01:18:59;41.73;;;26.77;;
8104;SDS011;4095;48.942;9.104;2023-02-11T01:21:25;44.87;;;27.70;;
8104;SDS011;4095;48.942;9.104;2023-02-11T01:23:51;44.07;;;27.07;;
8104;SDS011;4095;48.942;9.104;2023-02-11T01:26:17;38.53;;;27.03;;
8104;SDS011;4095;48.942;9.104;2023-02-11T01:28:42;42.17;;;26.90;;
8104;SDS011;4095;48.942;9.104;2023-02-11T01:31:08;44.83;;;27.77;;
8104;SDS011;4095;48.942;9.104;2023-02-11T01:33:34;41.37;;;26.23;;
8104;SDS011;4095;48.942;9.104;2023-02-11T01:36:00;41.83;;;27.57;;
8104;SDS011;4095;48.942;9.104;2023-02-11T01:38:28;44.63;;;28.70;;
8104;SDS011;4095;48.942;9.104;2023-02-11T01:40:55;38.47;;;26.00;;
8104;SDS011;4095;48.942;9.104;2023-02-11T01:43:26;42.93;;;26.67;;
8104;SDS011;4095;48.942;9.104;2023-02-11T01:46:02;37.73;;;24.93;;
8104;SDS011;4095;48.942;9.104;2023-02-11T01:48:39;42.60;;;27.00;;
8104;SDS011;4095;48.942;9.104;2023-02-11T01:51:08;42.37;;;26.63;;
8104;SDS011;4095;48.942;9.104;2023-02-11T01:53:38;39.67;;;26.50;;
8104;SDS011;4095;48.942;9.104;2023-02-11T01:56:23;47.53;;;27.30;;
8104;SDS011;4095;48.942;9.104;2023-02-11T01:59:14;38.27;;;25.83;;
8104;SDS011;4095;48.942;9.104;2023-02-11T02:01:45;42.03;;;26.43;;
8104;SDS011;4095;48.942;9.104;2023-02-11T02:04:14;42.27;;;26.77;;
8104;SDS011;4095;48.942;9.104;2023-02-11T02:06:44;38.97;;;26.53;;
8104;SDS011;4095;48.942;9.104;2023-02-11T02:09:23;44.60;;;26.23;;
8104;SDS011;4095;48.942;9.104;2023-02-11T02:11:52;38.57;;;24.90;;
8104;SDS011;4095;48.942;9.104;2023-02-11T02:14:18;43.83;;;26.17;;
8104;SDS011;4095;48.942;9.104;2023-02-11T02:16:44;38.83;;;24.60;;
8104;SDS011;4095;48.942;9.104;2023-02-11T02:22:22;42.17;;;26.03;;
8104;SDS011;4095;48.942;9.104;2023-02-11T02:27:47;40.37;;;26.17;;
8104;SDS011;4095;48.942;9.104;2023-02-11T02:35:49;40.83;;;27.23;;
8104;SDS011;4095;48.942;9.104;2023-02-11T02:38:30;38.07;;;25.23;;
8104;SDS011;4095;48.942;9.104;2023-02-11T02:41:12;45.73;;;28.17;;
8104;SDS011;4095;48.942;9.104;2023-02-11T02:43:41;42.80;;;27.60;;
8104;SDS011;4095;48.942;9.104;2023-02-11T02:46:14;42.87;;;28.17;;
8104;SDS011;4095;48.942;9.104;2023-02-11T02:48:44;42.93;;;28.03;;
8104;SDS011;4095;48.942;9.104;2023-02-11T02:59:25;48.13;;;28.23;;
8104;SDS011;4095;48.942;9.104;2023-02-11T03:12:52;46.00;;;26.60;;
8104;SDS011;4095;48.942;9.104;2023-02-11T03:15:20;45.77;;;28.00;;
8104;SDS011;4095;48.942;9.104;2023-02-11T03:17:48;45.93;;;27.47;;
8104;SDS011;4095;48.942;9.104;2023-02-11T03:20:17;42.90;;;27.70;;
8104;SDS011;4095;48.942;9.104;2023-02-11T03:22:47;39.20;;;26.10;;
8104;SDS011;4095;48.942;9.104;2023-02-11T03:25:19;40.17;;;26.37;;
8104;SDS011;4095;48.942;9.104;2023-02-11T03:27:56;36.37;;;24.37;;
8104;SDS011;4095;48.942;9.104;2023-02-11T03:30:28;36.90;;;24.73;;
8104;SDS011;4095;48.942;9.104;2023-02-11T03:33:00;38.87;;;25.10;;
8104;SDS011;4095;48.942;9.104;2023-02-11T03:38:06;35.97;;;24.30;;
8104;SDS011;4095;48.942;9.104;2023-02-11T03:40:38;37.83;;;24.83;;
8104;SDS011;4095;48.942;9.104;2023-02-11T03:43:12;36.30;;;24.20;;
8104;SDS011;4095;48.942;9.104;2023-02-11T03:45:42;34.30;;;23.77;;
8104;SDS011;4095;48.942;9.104;2023-02-11T03:50:40;35.77;;;23.70;;
8104;SDS011;4095;48.942;9.104;2023-02-11T03:53:07;35.60;;;24.97;;
8104;SDS011;4095;48.942;9.104;2023-02-11T03:55:36;42.90;;;28.00;;
8104;SDS011;4095;48.942;9.104;2023-02-11T03:58:04;48.00;;;29.83;;
8104;SDS011;4095;48.942;9.104;2023-02-11T04:00:30;42.10;;;27.87;;
8104;SDS011;4095;48.942;9.104;2023-02-11T04:02:58;39.60;;;25.60;;
8104;SDS011;4095;48.942;9.104;2023-02-11T04:05:24;38.87;;;26.30;;
8104;SDS011;4095;48.942;9.104;2023-02-11T04:07:49;37.37;;;24.33;;
8104;SDS011;4095;48.942;9.104;2023-02-11T04:10:15;44.57;;;27.07;;
8104;SDS011;4095;48.942;9.104;2023-02-11T04:12:41;41.50;;;26.30;;
8104;SDS011;4095;48.942;9.104;2023-02-11T04:15:06;40.13;;;26.63;;
8104;SDS011;4095;48.942;9.104;2023-02-11T04:17:32;40.60;;;26.97;;
8104;SDS011;4095;48.942;9.104;2023-02-11T04:19:58;39.07;;;26.23;;
8104;SDS011;4095;48.942;9.104;2023-02-11T04:22:23;44.23;;;27.73;;
8104;SDS011;4095;48.942;9.104;2023-02-11T04:24:49;42.80;;;26.90;;
8104;SDS011;4095;48.942;9.104;2023-02-11T04:27:14;39.87;;;26.37;;
8104;SDS011;4095;48.942;9.104;2023-02-11T04:29:40;41.53;;;26.70;;
8104;SDS011;4095;48.942;9.104;2023-02-11T04:32:06;39.63;;;25.50;;
8104;SDS011;4095;48.942;9.104;2023-02-11T04:34:32;42.03;;;27.13;;
8104;SDS011;4095;48.942;9.104;2023-02-11T04:36:57;41.07;;;25.53;;
8104;SDS011;4095;48.942;9.104;2023-02-11T04:39:23;40.90;;;25.90;;
8104;SDS011;4095;48.942;9.104;2023-02-11T04:41:48;37.83;;;25.97;;
8104;SDS011;4095;48.942;9.104;2023-02-11T04:44:14;40.83;;;25.47;;
8104;SDS011;4095;48.942;9.104;2023-02-11T04:46:40;39.87;;;25.20;;
8104;SDS011;4095;48.942;9.104;2023-02-11T04:49:05;39.53;;;26.03;;
8104;SDS011;4095;48.942;9.104;2023-02-11T04:51:31;39.67;;;25.93;;
8104;SDS011;4095;48.942;9.104;2023-02-11T04:53:57;36.93;;;25.00;;
8104;SDS011;4095;48.942;9.104;2023-02-11T04:56:22;40.30;;;26.40;;
8104;SDS011;4095;48.942;9.104;2023-02-11T04:58:48;40.37;;;25.47;;
8104;SDS011;4095;48.942;9.104;2023-02-11T05:01:14;41.07;;;27.03;;
8104;SDS011;4095;48.942;9.104;2023-02-11T05:03:40;42.77;;;27.57;;
8104;SDS011;4095;48.942;9.104;2023-02-11T05:06:06;40.63;;;26.80;;
8104;SDS011;4095;48.942;9.104;2023-02-11T05:08:33;43.37;;;26.40;;
8104;SDS011;4095;48.942;9.104;2023-02-11T05:10:59;38.67;;;26.90;;
8104;SDS011;4095;48.942;9.104;2023-02-11T05:13:26;40.37;;;26.23;;
8104;SDS011;4095;48.942;9.104;2023-02-11T05:15:52;39.20;;;25.90;;
8104;SDS011;4095;48.942;9.104;2023-02-11T05:18:18;40.47;;;26.83;;
8104;SDS011;4095;48.942;9.104;2023-02-11T05:20:43;38.00;;;26.43;;
8104;SDS011;4095;48.942;9.104;2023-02-11T05:23:09;39.70;;;27.23;;
8104;SDS011;4095;48.942;9.104;2023-02-11T05:25:35;37.60;;;26.50;;
8104;SDS011;4095;48.942;9.104;2023-02-11T05:28:01;40.57;;;26.93;;
8104;SDS011;4095;48.942;9.104;2023-02-11T05:30:27;39.43;;;25.53;;
8104;SDS011;4095;48.942;9.104;2023-02-11T05:32:53;37.73;;;25.87;;
8104;SDS011;4095;48.942;9.104;2023-02-11T05:35:19;41.23;;;26.93;;
8104;SDS011;4095;48.942;9.104;2023-02-11T05:37:44;40.57;;;26.50;;
8104;SDS011;4095;48.942;9.104;2023-02-11T05:40:10;38.40;;;27.43;;
8104;SDS011;4095;48.942;9.104;2023-02-11T05:42:36;40.73;;;27.53;;
8104;SDS011;4095;48.942;9.104;2023-02-11T05:45:01;39.50;;;27.53;;
8104;SDS011;4095;48.942;9.104;2023-02-11T05:47:28;41.20;;;26.50;;
8104;SDS011;4095;48.942;9.104;2023-02-11T05:49:53;39.00;;;27.00;;
8104;SDS011;4095;48.942;9.104;2023-02-11T05:52:19;38.80;;;25.83;;
8104;SDS011;4095;48.942;9.104;2023-02-11T05:54:46;42.50;;;27.03;;
8104;SDS011;4095;48.942;9.104;2023-02-11T05:57:11;36.30;;;25.50;;
8104;SDS011;4095;48.942;9.104;2023-02-11T05:59:37;37.93;;;26.40;;
8104;SDS011;4095;48.942;9.104;2023-02-11T06:02:03;40.30;;;25.30;;
8104;SDS011;4095;48.942;9.104;2023-02-11T06:04:29;39.83;;;26.13;;
8104;SDS011;4095;48.942;9.104;2023-02-11T06:06:55;36.17;;;24.97;;
8104;SDS011;4095;48.942;9.104;2023-02-11T06:09:21;38.90;;;26.10;;
8104;SDS011;4095;48.942;9.104;2023-02-11T06:11:46;34.37;;;24.23;;
8104;SDS011;4095;48.942;9.104;2023-02-11T06:14:12;38.37;;;25.50;;
8104;SDS011;4095;48.942;9.104;2023-02-11T06:16:38;38.97;;;25.73;;
8104;SDS011;4095;48.942;9.104;2023-02-11T06:19:04;39.73;;;26.80;;
8104;SDS011;4095;48.942;9.104;2023-02-11T06:21:29;34.70;;;25.77;;
8104;SDS011;4095;48.942;9.104;2023-02-11T06:23:55;35.67;;;25.77;;
8104;SDS011;4095;48.942;9.104;2023-02-11T06:26:23;34.70;;;24.80;;
8104;SDS011;4095;48.942;9.104;2023-02-11T06:28:49;35.63;;;25.10;;
8104;SDS011;4095;48.942;9.104;2023-02-11T06:31:14;36.90;;;25.37;;
8104;SDS011;4095;48.942;9.104;2023-02-11T06:33:41;39.07;;;26.80;;
8104;SDS011;4095;48.942;9.104;2023-02-11T06:36:14;37.83;;;26.13;;
8104;SDS011;4095;48.942;9.104;2023-02-11T06:38:47;35.90;;;25.87;;
8104;SDS011;4095;48.942;9.104;2023-02-11T06:41:14;38.77;;;26.33;;
8104;SDS011;4095;48.942;9.104;2023-02-11T06:43:44;37.17;;;27.00;;
8104;SDS011;4095;48.942;9.104;2023-02-11T06:46:09;38.40;;;26.50;;
8104;SDS011;4095;48.942;9.104;2023-02-11T06:48:35;36.67;;;26.07;;
8104;SDS011;4095;48.942;9.104;2023-02-11T06:51:02;35.30;;;25.93;;
8104;SDS011;4095;48.942;9.104;2023-02-11T06:53:37;35.80;;;25.90;;
8104;SDS011;4095;48.942;9.104;2023-02-11T06:56:05;39.77;;;26.53;;
8104;SDS011;4095;48.942;9.104;2023-02-11T06:58:33;35.87;;;25.40;;
8104;SDS011;4095;48.942;9.104;2023-02-11T07:01:02;39.53;;;26.97;;
8104;SDS011;4095;48.942;9.104;2023-02-11T07:03:30;37.27;;;26.77;;
8104;SDS011;4095;48.942;9.104;2023-02-11T07:05:58;35.47;;;26.20;;
8104;SDS011;4095;48.942;9.104;2023-02-11T07:08:24;37.97;;;27.03;;
8104;SDS011;4095;48.942;9.104;2023-02-11T07:10:49;38.10;;;27.00;;
8104;SDS011;4095;48.942;9.104;2023-02-11T07:13:15;38.10;;;26.80;;
8104;SDS011;4095;48.942;9.104;2023-02-11T07:15:41;37.20;;;27.00;;
8104;SDS011;4095;48.942;9.104;2023-02-11T07:18:06;34.53;;;25.67;;
8104;SDS011;4095;48.942;9.104;2023-02-11T07:20:32;39.90;;;28.13;;
8104;SDS011;4095;48.942;9.104;2023-02-11T07:22:57;40.87;;;29.10;;
8104;SDS011;4095;48.942;9.104;2023-02-11T07:25:24;39.23;;;27.37;;
8104;SDS011;4095;48.942;9.104;2023-02-11T07:27:49;37.47;;;26.10;;
8104;SDS011;4095;48.942;9.104;2023-02-11T07:30:15;36.73;;;26.47;;
8104;SDS011;4095;48.942;9.104;2023-02-11T07:32:41;37.43;;;26.17;;
8104;SDS011;4095;48.942;9.104;2023-02-11T07:35:06;39.87;;;28.70;;
8104;SDS011;4095;48.942;9.104;2023-02-11T07:37:33;41.77;;;27.37;;
8104;SDS011;4095;48.942;9.104;2023-02-11T07:39:59;37.53;;;25.70;;
8104;SDS011;4095;48.942;9.104;2023-02-11T07:42:24;38.80;;;26.13;;
8104;SDS011;4095;48.942;9.104;2023-02-11T07:44:50;37.00;;;26.10;;
8104;SDS011;4095;48.942;9.104;2023-02-11T07:47:16;37.17;;;26.13;;
8104;SDS011;4095;48.942;9.104;2023-02-11T07:49:41;37.93;;;26.10;;
8104;SDS011;4095;48.942;9.104;2023-02-11T07:52:07;37.50;;;26.03;;
8104;SDS011;4095;48.942;9.104;2023-02-11T07:54:33;35.93;;;25.40;;
8104;SDS011;4095;48.942;9.104;2023-02-11T07:56:58;37.37;;;27.70;;
8104;SDS011;4095;48.942;9.104;2023-02-11T07:59:24;35.57;;;25.50;;
8104;SDS011;4095;48.942;9.104;2023-02-11T08:01:50;35.37;;;25.07;;
8104;SDS011;4095;48.942;9.104;2023-02-11T08:04:16;36.80;;;26.37;;
8104;SDS011;4095;48.942;9.104;2023-02-11T08:06:41;44.27;;;29.73;;
8104;SDS011;4095;48.942;9.104;2023-02-11T08:09:09;39.83;;;29.10;;
8104;SDS011;4095;48.942;9.104;2023-02-11T08:11:39;37.77;;;25.53;;
8104;SDS011;4095;48.942;9.104;2023-02-11T08:14:05;35.93;;;26.37;;
8104;SDS011;4095;48.942;9.104;2023-02-11T08:16:31;37.77;;;27.43;;
8104;SDS011;4095;48.942;9.104;2023-02-11T08:19:00;38.50;;;27.23;;
8104;SDS011;4095;48.942;9.104;2023-02-11T08:21:27;37.30;;;26.60;;
8104;SDS011;4095;48.942;9.104;2023-02-11T08:23:53;34.57;;;24.27;;
8104;SDS011;4095;48.942;9.104;2023-02-11T08:26:23;37.53;;;27.60;;
8104;SDS011;4095;48.942;9.104;2023-02-11T08:28:51;34.93;;;26.17;;
8104;SDS011;4095;48.942;9.104;2023-02-11T08:31:23;34.20;;;25.37;;
8104;SDS011;4095;48.942;9.104;2023-02-11T08:33:50;31.53;;;24.17;;
8104;SDS011;4095;48.942;9.104;2023-02-11T08:36:21;35.07;;;25.87;;
8104;SDS011;4095;48.942;9.104;2023-02-11T08:38:48;34.83;;;25.23;;
8104;SDS011;4095;48.942;9.104;2023-02-11T08:41:14;32.77;;;24.67;;
8104;SDS011;4095;48.942;9.104;2023-02-11T08:43:41;33.07;;;25.03;;
8104;SDS011;4095;48.942;9.104;2023-02-11T08:46:08;31.77;;;23.87;;
8104;SDS011;4095;48.942;9.104;2023-02-11T08:48:37;38.57;;;25.70;;
8104;SDS011;4095;48.942;9.104;2023-02-11T08:51:08;32.43;;;23.13;;
8104;SDS011;4095;48.942;9.104;2023-02-11T08:53:36;32.87;;;23.13;;
8104;SDS011;4095;48.942;9.104;2023-02-11T08:56:03;30.27;;;22.83;;
8104;SDS011;4095;48.942;9.104;2023-02-11T08:58:30;31.40;;;22.80;;
8104;SDS011;4095;48.942;9.104;2023-02-11T09:00:56;31.77;;;23.27;;
8104;SDS011;4095;48.942;9.104;2023-02-11T09:03:22;32.47;;;23.60;;
8104;SDS011;4095;48.942;9.104;2023-02-11T09:05:49;27.13;;;21.73;;
8104;SDS011;4095;48.942;9.104;2023-02-11T09:08:17;27.93;;;20.40;;
8104;SDS011;4095;48.942;9.104;2023-02-11T09:10:44;25.83;;;19.43;;
8104;SDS011;4095;48.942;9.104;2023-02-11T09:13:10;22.97;;;18.47;;
8104;SDS011;4095;48.942;9.104;2023-02-11T09:15:35;25.67;;;19.03;;
8104;SDS011;4095;48.942;9.104;2023-02-11T09:18:01;22.03;;;17.53;;
8104;SDS011;4095;48.942;9.104;2023-02-11T09:20:28;23.27;;;18.10;;
8104;SDS011;4095;48.942;9.104;2023-02-11T09:22:55;20.57;;;16.67;;
8104;SDS011;4095;48.942;9.104;2023-02-11T09:25:21;23.33;;;17.43;;
8104;SDS011;4095;48.942;9.104;2023-02-11T09:27:47;21.10;;;16.83;;
8104;SDS011;4095;48.942;9.104;2023-02-11T09:30:13;22.23;;;17.47;;
8104;SDS011;4095;48.942;9.104;2023-02-11T09:32:39;19.97;;;16.20;;
8104;SDS011;4095;48.942;9.104;2023-02-11T09:35:05;23.63;;;17.87;;
8104;SDS011;4095;48.942;9.104;2023-02-11T09:37:30;22.70;;;16.90;;
8104;SDS011;4095;48.942;9.104;2023-02-11T09:39:56;19.57;;;15.67;;
8104;SDS011;4095;48.942;9.104;2023-02-11T09:45:03;19.00;;;15.17;;
8104;SDS011;4095;48.942;9.104;2023-02-11T09:47:34;17.23;;;14.37;;
8104;SDS011;4095;48.942;9.104;2023-02-11T09:50:12;18.40;;;14.23;;
8104;SDS011;4095;48.942;9.104;2023-02-11T09:52:50;17.57;;;14.67;;
8104;SDS011;4095;48.942;9.104;2023-02-11T09:55:25;17.00;;;13.97;;
8104;SDS011;4095;48.942;9.104;2023-02-11T09:57:54;15.00;;;12.80;;
8104;SDS011;4095;48.942;9.104;2023-02-11T10:00:25;14.60;;;11.43;;
8104;SDS011;4095;48.942;9.104;2023-02-11T10:05:37;14.43;;;11.30;;
8104;SDS011;4095;48.942;9.104;2023-02-11T10:11:10;12.07;;;10.00;;
8104;SDS011;4095;48.942;9.104;2023-02-11T10:13:46;12.33;;;10.13;;
8104;SDS011;4095;48.942;9.104;2023-02-11T10:25:00;11.63;;;9.43;;
8104;SDS011;4095;48.942;9.104;2023-02-11T10:27:41;13.40;;;9.60;;
8104;SDS011;4095;48.942;9.104;2023-02-11T10:32:50;12.50;;;8.83;;
8104;SDS011;4095;48.942;9.104;2023-02-11T10:35:23;11.90;;;9.27;;
8104;SDS011;4095;48.942;9.104;2023-02-11T10:37:51;10.60;;;8.43;;
8104;SDS011;4095;48.942;9.104;2023-02-11T10:40:25;10.27;;;9.13;;
8104;SDS011;4095;48.942;9.104;2023-02-11T10:42:54;13.23;;;9.80;;
8104;SDS011;4095;48.942;9.104;2023-02-11T10:45:31;13.27;;;9.70;;
8104;SDS011;4095;48.942;9.104;2023-02-11T10:48:00;10.97;;;8.80;;
8104;SDS011;4095;48.942;9.104;2023-02-11T10:50:29;11.73;;;9.03;;
8104;SDS011;4095;48.942;9.104;2023-02-11T10:53:18;12.03;;;9.53;;
8104;SDS011;4095;48.942;9.104;2023-02-11T10:55:49;12.23;;;9.53;;
8104;SDS011;4095;48.942;9.104;2023-02-11T10:58:22;11.77;;;9.80;;
8104;SDS011;4095;48.942;9.104;2023-02-11T11:00:53;13.87;;;10.37;;
8104;SDS011;4095;48.942;9.104;2023-02-11T11:03:31;12.00;;;9.37;;
8104;SDS011;4095;48.942;9.104;2023-02-11T11:06:04;12.60;;;10.80;;
8104;SDS011;4095;48.942;9.104;2023-02-11T11:08:42;12.73;;;11.00;;
8104;SDS011;4095;48.942;9.104;2023-02-11T11:11:16;15.97;;;10.33;;
8104;SDS011;4095;48.942;9.104;2023-02-11T11:16:23;14.37;;;11.53;;
8104;SDS011;4095;48.942;9.104;2023-02-11T11:21:48;12.10;;;10.93;;
8104;SDS011;4095;48.942;9.104;2023-02-11T11:24:20;11.80;;;10.60;;
8104;SDS011;4095;48.942;9.104;2023-02-11T11:26:51;13.32;;;11.93;;
8104;SDS011;4095;48.942;9.104;2023-02-11T11:29:28;12.40;;;10.30;;
8104;SDS011;4095;48.942;9.104;2023-02-11T11:32:10;10.77;;;9.68;;
8104;SDS011;4095;48.942;9.104;2023-02-11T11:34:43;13.20;;;10.40;;
8104;SDS011;4095;48.942;9.104;2023-02-11T11:40:25;12.00;;;10.00;;
8104;SDS011;4095;48.942;9.104;2023-02-11T11:45:37;11.88;;;10.63;;
8104;SDS011;4095;48.942;9.104;2023-02-11T11:50:43;12.83;;;10.43;;
8104;SDS011;4095;48.942;9.104;2023-02-11T11:53:28;11.97;;;10.13;;
8104;SDS011;4095;48.942;9.104;2023-02-11T11:58:27;15.07;;;11.63;;
8104;SDS011;4095;48.942;9.104;2023-02-11T12:25:50;14.23;;;11.50;;
8104;SDS011;4095;48.942;9.104;2023-02-11T12:39:36;14.87;;;12.53;;
8104;SDS011;4095;48.942;9.104;2023-02-11T12:53:16;16.53;;;12.80;;
8104;SDS011;4095;48.942;9.104;2023-02-11T12:55:47;15.83;;;11.80;;
8104;SDS011;4095;48.942;9.104;2023-02-11T12:58:18;15.00;;;11.90;;
8104;SDS011;4095;48.942;9.104;2023-02-11T13:00:48;15.43;;;12.37;;
8104;SDS011;4095;48.942;9.104;2023-02-11T13:06:07;16.43;;;12.70;;
8104;SDS011;4095;48.942;9.104;2023-02-11T13:11:15;12.83;;;11.53;;
8104;SDS011;4095;48.942;9.104;2023-02-11T13:37:55;15.10;;;11.90;;
8104;SDS011;4095;48.942;9.104;2023-02-11T13:40:24;13.13;;;11.57;;
8104;SDS011;4095;48.942;9.104;2023-02-11T13:48:15;14.13;;;11.87;;
8104;SDS011;4095;48.942;9.104;2023-02-11T13:50:52;14.23;;;11.60;;
8104;SDS011;4095;48.942;9.104;2023-02-11T13:53:20;13.03;;;11.00;;
8104;SDS011;4095;48.942;9.104;2023-02-11T13:55:48;14.07;;;11.63;;
8104;SDS011;4095;48.942;9.104;2023-02-11T13:58:18;13.97;;;11.30;;
8104;SDS011;4095;48.942;9.104;2023-02-11T14:00:53;13.63;;;11.30;;
8104;SDS011;4095;48.942;9.104;2023-02-11T14:14:11;15.20;;;12.37;;
8104;SDS011;4095;48.942;9.104;2023-02-11T14:19:39;14.00;;;11.23;;
8104;SDS011;4095;48.942;9.104;2023-02-11T14:24:51;14.60;;;12.33;;
8104;SDS011;4095;48.942;9.104;2023-02-11T14:32:43;13.73;;;12.13;;
8104;SDS011;4095;48.942;9.104;2023-02-11T14:35:30;13.03;;;11.20;;
8104;SDS011;4095;48.942;9.104;2023-02-11T14:38:09;14.83;;;11.50;;
8104;SDS011;4095;48.942;9.104;2023-02-11T14:43:26;14.73;;;12.40;;
8104;SDS011;4095;48.942;9.104;2023-02-11T14:45:57;12.93;;;11.53;;
8104;SDS011;4095;48.942;9.104;2023-02-11T14:48:30;12.87;;;11.57;;
8104;SDS011;4095;48.942;9.104;2023-02-11T14:51:02;14.97;;;12.23;;
8104;SDS011;4095;48.942;9.104;2023-02-11T14:53:33;14.60;;;12.17;;
8104;SDS011;4095;48.942;9.104;2023-02-11T14:56:00;13.30;;;11.37;;
8104;SDS011;4095;48.942;9.104;2023-02-11T14:58:29;17.63;;;12.73;;
8104;SDS011;4095;48.942;9.104;2023-02-11T15:06:02;15.57;;;12.20;;
8104;SDS011;4095;48.942;9.104;2023-02-11T15:11:41;16.63;;;13.60;;
8104;SDS011;4095;48.942;9.104;2023-02-11T15:14:24;15.47;;;12.87;;
8104;SDS011;4095;48.942;9.104;2023-02-11T15:16:52;14.10;;;12.70;;
8104;SDS011;4095;48.942;9.104;2023-02-11T15:19:34;17.13;;;13.10;;
8104;SDS011;4095;48.942;9.104;2023-02-11T15:22:05;15.30;;;13.63;;
8104;SDS011;4095;48.942;9.104;2023-02-11T15:24:42;13.77;;;12.37;;
8104;SDS011;4095;48.942;9.104;2023-02-11T15:29:39;16.90;;;14.87;;
8104;SDS011;4095;48.942;9.104;2023-02-11T15:32:14;16.10;;;14.10;;
8104;SDS011;4095;48.942;9.104;2023-02-11T15:34:42;15.80;;;14.17;;
8104;SDS011;4095;48.942;9.104;2023-02-11T15:37:13;16.67;;;14.30;;
8104;SDS011;4095;48.942;9.104;2023-02-11T15:39:45;17.07;;;14.87;;
8104;SDS011;4095;48.942;9.104;2023-02-11T15:42:14;19.20;;;14.63;;
8104;SDS011;4095;48.942;9.104;2023-02-11T15:45:07;18.10;;;14.43;;
8104;SDS011;4095;48.942;9.104;2023-02-11T15:47:50;17.63;;;14.53;;
8104;SDS011;4095;48.942;9.104;2023-02-11T15:52:47;17.27;;;14.37;;
8104;SDS011;4095;48.942;9.104;2023-02-11T15:55:14;17.13;;;14.57;;
8104;SDS011;4095;48.942;9.104;2023-02-11T15:57:45;18.20;;;14.63;;
8104;SDS011;4095;48.942;9.104;2023-02-11T16:00:17;19.17;;;15.67;;
8104;SDS011;4095;48.942;9.104;2023-02-11T16:02:45;16.80;;;14.80;;
8104;SDS011;4095;48.942;9.104;2023-02-11T16:08:27;19.10;;;16.43;;
8104;SDS011;4095;48.942;9.104;2023-02-11T16:11:36;21.90;;;17.77;;
8104;SDS011;4095;48.942;9.104;2023-02-11T16:13:48;20.90;;;17.83;;
8104;SDS011;4095;48.942;9.104;2023-02-11T16:16:17;21.20;;;16.73;;
8104;SDS011;4095;48.942;9.104;2023-02-11T16:18:49;19.60;;;16.40;;
8104;SDS011;4095;48.942;9.104;2023-02-11T16:21:17;20.07;;;16.97;;
8104;SDS011;4095;48.942;9.104;2023-02-11T16:23:49;20.07;;;16.50;;
8104;SDS011;4095;48.942;9.104;2023-02-11T16:26:23;21.43;;;16.70;;
8104;SDS011;4095;48.942;9.104;2023-02-11T16:29:12;19.37;;;16.77;;
8104;SDS011;4095;48.942;9.104;2023-02-11T16:31:41;21.07;;;17.53;;
8104;SDS011;4095;48.942;9.104;2023-02-11T16:34:24;19.97;;;17.13;;
8104;SDS011;4095;48.942;9.104;2023-02-11T16:36:50;21.47;;;18.20;;
8104;SDS011;4095;48.942;9.104;2023-02-11T16:39:17;24.27;;;20.17;;
8104;SDS011;4095;48.942;9.104;2023-02-11T16:41:47;21.57;;;18.13;;
8104;SDS011;4095;48.942;9.104;2023-02-11T16:44:14;23.13;;;18.80;;
8104;SDS011;4095;48.942;9.104;2023-02-11T16:46:40;21.57;;;18.37;;
8104;SDS011;4095;48.942;9.104;2023-02-11T16:51:59;24.10;;;19.63;;
8104;SDS011;4095;48.942;9.104;2023-02-11T16:54:27;23.93;;;19.00;;
8104;SDS011;4095;48.942;9.104;2023-02-11T16:56:53;24.47;;;21.20;;
8104;SDS011;4095;48.942;9.104;2023-02-11T16:59:19;25.13;;;20.47;;
8104;SDS011;4095;48.942;9.104;2023-02-11T17:01:45;28.10;;;20.23;;
8104;SDS011;4095;48.942;9.104;2023-02-11T17:04:16;26.30;;;19.90;;
8104;SDS011;4095;48.942;9.104;2023-02-11T17:06:48;26.10;;;20.37;;
8104;SDS011;4095;48.942;9.104;2023-02-11T17:09:15;23.43;;;19.80;;
8104;SDS011;4095;48.942;9.104;2023-02-11T17:11:43;24.23;;;18.37;;
8104;SDS011;4095;48.942;9.104;2023-02-11T17:14:09;22.77;;;19.67;;
8104;SDS011;4095;48.942;9.104;2023-02-11T17:16:34;22.17;;;18.90;;
8104;SDS011;4095;48.942;9.104;2023-02-11T17:19:00;22.57;;;19.07;;
8104;SDS011;4095;48.942;9.104;2023-02-11T17:21:26;21.63;;;18.40;;
8104;SDS011;4095;48.942;9.104;2023-02-11T17:23:52;21.57;;;18.40;;
8104;SDS011;4095;48.942;9.104;2023-02-11T17:26:17;21.90;;;18.33;;
8104;SDS011;4095;48.942;9.104;2023-02-11T17:28:43;22.23;;;18.53;;
8104;SDS011;4095;48.942;9.104;2023-02-11T17:31:08;21.10;;;18.37;;
8104;SDS011;4095;48.942;9.104;2023-02-11T17:33:34;24.63;;;20.07;;
8104;SDS011;4095;48.942;9.104;2023-02-11T17:36:05;24.30;;;19.50;;
8104;SDS011;4095;48.942;9.104;2023-02-11T17:38:33;20.73;;;18.53;;
8104;SDS011;4095;48.942;9.104;2023-02-11T17:41:00;21.37;;;18.67;;
8104;SDS011;4095;48.942;9.104;2023-02-11T17:43:26;21.07;;;18.60;;
8104;SDS011;4095;48.942;9.104;2023-02-11T17:45:52;23.00;;;19.30;;
8104;SDS011;4095;48.942;9.104;2023-02-11T17:48:18;24.40;;;19.40;;
8104;SDS011;4095;48.942;9.104;2023-02-11T17:50:43;22.93;;;18.93;;
8104;SDS011;4095;48.942;9.104;2023-02-11T17:53:09;23.97;;;19.53;;
8104;SDS011;4095;48.942;9.104;2023-02-11T17:55:35;24.13;;;20.17;;
8104;SDS011;4095;48.942;9.104;2023-02-11T17:58:02;25.60;;;20.23;;
8104;SDS011;4095;48.942;9.104;2023-02-11T18:00:28;21.00;;;18.67;;
8104;SDS011;4095;48.942;9.104;2023-02-11T18:02:54;24.43;;;19.67;;
8104;SDS011;4095;48.942;9.104;2023-02-11T18:05:21;26.77;;;20.03;;
8104;SDS011;4095;48.942;9.104;2023-02-11T18:07:49;23.00;;;19.80;;
8104;SDS011;4095;48.942;9.104;2023-02-11T18:10:15;22.73;;;19.80;;
8104;SDS011;4095;48.942;9.104;2023-02-11T18:12:41;25.87;;;18.97;;
8104;SDS011;4095;48.942;9.104;2023-02-11T18:15:07;25.43;;;18.97;;